createdAt,value
2023-04-15T00:00:31.834Z,4.84
2023-04-15T00:03:02.550Z,4.74
2023-04-15T00:05:33.407Z,4.75
2023-04-15T00:08:06.679Z,4.76
2023-04-15T00:10:36.673Z,4.94
2023-04-15T00:13:06.604Z,4.74
2023-04-15T00:15:37.393Z,5.32
2023-04-15T00:18:07.560Z,5.09
2023-04-15T00:20:37.891Z,5.16
2023-04-15T00:23:10.464Z,5.51
2023-04-15T00:25:40.403Z,5.56
2023-04-15T00:28:10.317Z,6.27
2023-04-15T00:30:40.373Z,7.15
2023-04-15T00:33:10.302Z,7.19
2023-04-15T00:35:40.731Z,7.93
2023-04-15T00:38:13.348Z,9.06
2023-04-15T00:40:45.620Z,9.52
2023-04-15T00:43:16.594Z,10.21
2023-04-15T00:45:47.658Z,10.54
2023-04-15T00:48:18.446Z,11.05
2023-04-15T00:50:48.573Z,10.51
2023-04-15T00:53:21.166Z,10.28
2023-04-15T00:55:51.536Z,10.46
2023-04-15T00:58:21.992Z,10.08
2023-04-15T01:00:54.462Z,8.85
2023-04-15T01:03:24.619Z,8.35
2023-04-15T01:05:58.481Z,7.97
2023-04-15T01:08:33.477Z,8.37
2023-04-15T01:11:08.588Z,8.26
2023-04-15T01:13:39.543Z,8.22
2023-04-15T01:16:14.826Z,8.24
2023-04-15T01:18:48.161Z,7.68
2023-04-15T01:21:18.302Z,7.43
2023-04-15T01:23:56.137Z,7.25
2023-04-15T01:26:29.096Z,7.19
2023-04-15T01:28:59.439Z,7.20
2023-04-15T01:31:29.645Z,7.16
2023-04-15T01:34:01.030Z,6.92
2023-04-15T01:36:49.822Z,7.11
2023-04-15T01:39:19.819Z,7.20
2023-04-15T01:41:53.337Z,6.60
2023-04-15T01:44:24.497Z,6.43
2023-04-15T01:46:55.713Z,6.49
2023-04-15T01:49:27.780Z,6.36
2023-04-15T01:51:58.900Z,6.07
2023-04-15T01:54:30.210Z,5.88
2023-04-15T01:57:04.057Z,6.20
2023-04-15T01:59:35.263Z,5.88
2023-04-15T02:02:06.476Z,6.05
2023-04-15T02:04:37.751Z,5.98
2023-04-15T02:07:08.873Z,5.66
2023-04-15T02:09:40.089Z,6.15
2023-04-15T02:12:15.527Z,6.19
2023-04-15T02:14:52.621Z,5.68
2023-04-15T02:17:23.759Z,5.98
2023-04-15T02:19:55.361Z,5.92
2023-04-15T02:22:26.620Z,5.71
2023-04-15T02:24:57.814Z,5.92
2023-04-15T02:27:32.964Z,6.48
2023-04-15T02:30:04.188Z,8.81
2023-04-15T02:32:35.491Z,10.89
2023-04-15T02:35:06.944Z,12.28
2023-04-15T02:37:43.543Z,11.78
2023-04-15T02:40:16.161Z,11.36
2023-04-15T02:42:49.884Z,11.80
2023-04-15T02:45:24.325Z,11.23
2023-04-15T02:47:56.041Z,10.94
2023-04-15T02:50:27.782Z,10.76
2023-04-15T02:52:59.012Z,10.35
2023-04-15T02:55:30.372Z,10.55
2023-04-15T02:58:04.227Z,9.59
2023-04-15T03:00:35.545Z,10.04
2023-04-15T03:03:09.273Z,9.72
2023-04-15T03:05:41.706Z,9.40
2023-04-15T03:08:13.181Z,9.38
2023-04-15T03:10:44.359Z,9.69
2023-04-15T03:13:18.097Z,10.15
2023-04-15T03:15:50.389Z,10.44
2023-04-15T03:18:21.689Z,10.39
2023-04-15T03:20:52.917Z,10.32
2023-04-15T03:23:24.253Z,10.26
2023-04-15T03:25:57.341Z,9.92
2023-04-15T03:28:33.935Z,10.12
2023-04-15T03:31:05.979Z,9.84
2023-04-15T03:33:37.151Z,10.85
2023-04-15T03:36:08.894Z,10.20
2023-04-15T03:38:40.057Z,10.47
2023-04-15T03:41:11.295Z,10.14
2023-04-15T03:43:45.020Z,10.05
2023-04-15T03:46:20.625Z,10.24
2023-04-15T03:48:52.409Z,10.18
2023-04-15T03:51:23.857Z,10.19
2023-04-15T03:53:55.243Z,10.23
2023-04-15T03:56:26.514Z,10.54
2023-04-15T03:59:00.435Z,9.93
2023-04-15T04:01:32.622Z,10.38
2023-04-15T04:04:04.439Z,10.07
2023-04-15T04:06:36.394Z,10.12
2023-04-15T04:09:07.785Z,9.99
2023-04-15T04:11:39.544Z,10.56
2023-04-15T04:14:13.229Z,10.39
2023-04-15T04:16:44.950Z,10.10
2023-04-15T04:19:19.722Z,10.14
2023-04-15T04:21:50.885Z,9.68
2023-04-15T04:24:22.126Z,9.85
2023-04-15T04:26:53.320Z,9.68
2023-04-15T04:29:27.176Z,10.13
2023-04-15T04:31:58.396Z,10.24
2023-04-15T04:34:29.629Z,10.85
2023-04-15T04:37:00.929Z,10.81
2023-04-15T04:39:32.918Z,11.27
2023-04-15T04:42:04.089Z,11.46
2023-04-15T04:44:38.185Z,12.03
2023-04-15T04:47:09.416Z,10.98
2023-04-15T04:49:41.290Z,11.03
2023-04-15T04:52:13.305Z,10.47
2023-04-15T04:54:44.462Z,9.64
2023-04-15T04:57:15.780Z,9.02
2023-04-15T04:59:49.544Z,8.64
2023-04-15T05:02:20.815Z,8.05
2023-04-15T05:04:54.534Z,8.31
2023-04-15T05:07:25.977Z,7.93
2023-04-15T05:09:57.293Z,7.54
2023-04-15T05:12:28.495Z,7.62
2023-04-15T05:15:02.245Z,8.29
2023-04-15T05:17:35.522Z,8.58
2023-04-15T05:20:07.599Z,8.94
2023-04-15T05:22:38.808Z,8.57
2023-04-15T05:25:10.988Z,9.22
2023-04-15T05:27:42.354Z,9.01
2023-04-15T05:30:16.353Z,8.45
2023-04-15T05:32:47.606Z,8.19
2023-04-15T05:35:19.278Z,7.84
2023-04-15T05:37:50.473Z,7.61
2023-04-15T05:40:21.699Z,7.48
2023-04-15T05:42:52.939Z,7.00
2023-04-15T05:45:27.456Z,6.69
2023-04-15T05:47:58.705Z,6.74
2023-04-15T05:50:30.012Z,6.83
2023-04-15T05:53:01.302Z,6.83
2023-04-15T05:55:33.041Z,7.65
2023-04-15T05:58:04.328Z,7.77
2023-04-15T06:00:38.147Z,8.24
2023-04-15T06:03:09.476Z,6.85
2023-04-15T06:05:45.153Z,6.48
2023-04-15T06:08:16.345Z,6.70
2023-04-15T06:10:47.516Z,6.97
2023-04-15T06:13:19.036Z,6.76
2023-04-15T06:15:52.835Z,6.82
2023-04-15T06:18:24.164Z,7.15
2023-04-15T06:20:55.449Z,6.74
2023-04-15T06:23:27.625Z,6.52
2023-04-15T06:25:59.282Z,7.27
2023-04-15T06:28:30.711Z,6.90
2023-04-15T06:31:04.660Z,6.49
2023-04-15T06:33:35.939Z,6.47
2023-04-15T06:36:07.242Z,7.05
2023-04-15T06:38:38.416Z,7.27
2023-04-15T06:41:09.624Z,7.41
2023-04-15T06:43:41.249Z,7.77
2023-04-15T06:46:33.911Z,7.75
2023-04-15T06:49:05.615Z,7.30
2023-04-15T06:51:37.807Z,7.34
2023-04-15T06:54:09.007Z,7.79
2023-04-15T06:56:40.148Z,7.86
2023-04-15T06:59:11.486Z,7.73
2023-04-15T07:01:45.415Z,8.12
2023-04-15T07:04:16.720Z,8.50
2023-04-15T07:06:47.924Z,8.05
2023-04-15T07:09:19.166Z,7.57
2023-04-15T07:11:50.484Z,7.86
2023-04-15T07:14:21.785Z,6.60
2023-04-15T07:16:55.952Z,5.78
2023-04-15T07:19:27.304Z,6.17
2023-04-15T07:21:58.570Z,6.13
2023-04-15T07:24:30.186Z,5.91
2023-04-15T07:27:02.298Z,5.74
2023-04-15T07:29:33.559Z,5.98
2023-04-15T07:32:07.987Z,6.41
2023-04-15T07:34:39.392Z,6.35
2023-04-15T07:37:10.598Z,6.22
2023-04-15T07:39:41.980Z,6.03
2023-04-15T07:42:13.429Z,5.95
2023-04-15T07:44:44.685Z,5.55
2023-04-15T07:47:18.656Z,5.54
2023-04-15T07:49:51.613Z,5.38
2023-04-15T07:52:22.764Z,5.42
2023-04-15T07:54:53.884Z,5.46
2023-04-15T07:57:25.015Z,5.17
2023-04-15T07:59:56.174Z,5.30
2023-04-15T08:02:30.135Z,5.06
2023-04-15T08:05:03.173Z,4.97
2023-04-15T08:07:34.627Z,5.49
2023-04-15T08:10:05.994Z,6.01
2023-04-15T08:12:37.251Z,5.16
2023-04-15T08:15:09.784Z,5.66
2023-04-15T08:17:43.809Z,6.15
2023-04-15T08:20:15.503Z,6.12
2023-04-15T08:22:48.038Z,6.78
2023-04-15T08:25:19.931Z,6.68
2023-04-15T08:27:51.209Z,6.27
2023-04-15T08:30:22.314Z,6.29
2023-04-15T08:32:56.157Z,6.58
2023-04-15T08:35:27.554Z,6.45
2023-04-15T08:37:58.777Z,6.78
2023-04-15T08:40:41.847Z,6.46
2023-04-15T08:43:16.001Z,6.13
2023-04-15T08:45:48.896Z,6.15
2023-04-15T08:48:24.845Z,6.44
2023-04-15T08:50:56.859Z,6.08
2023-04-15T08:53:29.387Z,6.89
2023-04-15T08:56:02.923Z,8.94
2023-04-15T08:58:34.632Z,7.00
2023-04-15T09:01:06.063Z,6.46
2023-04-15T09:03:40.914Z,6.93
2023-04-15T09:06:12.725Z,6.74
2023-04-15T09:08:44.216Z,6.72
2023-04-15T09:11:15.732Z,7.10
2023-04-15T09:13:47.404Z,7.19
2023-04-15T09:16:19.274Z,6.81
2023-04-15T09:18:57.143Z,6.85
2023-04-15T09:21:29.735Z,7.11
2023-04-15T09:24:04.114Z,6.81
2023-04-15T09:26:37.796Z,6.88
2023-04-15T09:29:10.326Z,6.50
2023-04-15T09:31:42.740Z,6.82
2023-04-15T09:34:16.782Z,6.81
2023-04-15T09:36:59.123Z,6.79
2023-04-15T09:39:30.352Z,6.93
2023-04-15T09:42:09.967Z,7.20
2023-04-15T09:44:41.215Z,7.41
2023-04-15T09:47:12.552Z,7.50
2023-04-15T09:49:59.266Z,8.04
2023-04-15T09:52:31.038Z,7.85
2023-04-15T09:55:04.623Z,7.77
2023-04-15T09:57:38.568Z,7.82
2023-04-15T10:00:12.620Z,7.95
2023-04-15T10:02:45.146Z,8.30
2023-04-15T10:05:19.626Z,8.15
2023-04-15T10:07:53.022Z,7.69
2023-04-15T10:10:24.582Z,8.01
2023-04-15T10:12:58.121Z,8.09
2023-04-15T10:15:32.721Z,8.56
2023-04-15T10:18:05.037Z,8.76
2023-04-15T10:20:40.987Z,8.04
2023-04-15T10:23:13.429Z,7.98
2023-04-15T10:25:46.095Z,7.98
2023-04-15T10:28:19.215Z,8.26
2023-04-15T10:30:52.297Z,8.21
2023-04-15T10:33:26.750Z,7.84
2023-04-15T10:36:01.674Z,7.81
2023-04-15T10:38:43.436Z,8.45
2023-04-15T10:41:21.269Z,8.96
2023-04-15T10:43:54.922Z,8.64
2023-04-15T10:46:29.640Z,8.56
2023-04-15T10:49:01.616Z,9.36
2023-04-15T10:51:36.153Z,9.58
2023-04-15T10:54:12.883Z,9.74
2023-04-15T10:56:45.545Z,9.42
2023-04-15T10:59:19.967Z,9.36
2023-04-15T11:02:00.465Z,9.69
2023-04-15T11:04:57.728Z,8.92
2023-04-15T11:07:52.781Z,8.73
2023-04-15T11:10:57.712Z,9.38
2023-04-15T11:13:33.304Z,9.57
2023-04-15T11:16:06.067Z,7.79
2023-04-15T11:18:40.673Z,7.75
2023-04-15T11:21:12.320Z,7.41
2023-04-15T11:23:47.563Z,7.20
2023-04-15T11:26:18.788Z,6.85
2023-04-15T11:28:50.115Z,6.07
2023-04-15T11:31:24.030Z,5.34
2023-04-15T11:33:59.884Z,5.10
2023-04-15T11:36:33.273Z,4.69
2023-04-15T11:39:10.500Z,4.59
2023-04-15T11:41:43.176Z,5.09
2023-04-15T11:44:20.629Z,5.19
2023-04-15T11:46:51.892Z,5.61
2023-04-15T11:49:30.464Z,4.26
2023-04-15T11:52:00.720Z,4.99
2023-04-15T11:54:33.347Z,5.01
2023-04-15T11:57:03.341Z,5.00
2023-04-15T11:59:46.170Z,5.05
2023-04-15T12:02:16.822Z,4.68
2023-04-15T12:04:47.090Z,4.65
2023-04-15T12:07:17.092Z,4.37
2023-04-15T12:09:58.312Z,5.74
2023-04-15T12:12:31.027Z,4.47
2023-04-15T12:15:01.072Z,4.23
2023-04-15T12:17:31.766Z,4.14
2023-04-15T12:20:27.811Z,3.92
2023-04-15T12:23:08.818Z,4.39
2023-04-15T12:25:41.724Z,4.77
2023-04-15T12:28:14.253Z,5.42
2023-04-15T12:30:52.858Z,5.42
2023-04-15T12:33:22.870Z,5.71
2023-04-15T12:35:52.831Z,5.50
2023-04-15T12:38:22.757Z,5.62
2023-04-15T12:40:56.652Z,5.63
2023-04-15T12:43:27.433Z,5.64
2023-04-15T12:45:57.209Z,5.74
2023-04-15T12:48:27.364Z,5.61
2023-04-15T12:50:57.390Z,5.79
2023-04-15T12:53:27.772Z,5.82
2023-04-15T12:56:00.523Z,5.66
2023-04-15T12:58:30.476Z,5.32
2023-04-15T13:01:00.510Z,5.74
2023-04-15T13:03:30.668Z,5.25
2023-04-15T13:06:02.406Z,4.99
2023-04-15T13:08:32.363Z,4.98
2023-04-15T13:11:05.061Z,4.88
2023-04-15T13:13:35.058Z,5.72
2023-04-15T13:16:12.635Z,5.66
2023-04-15T13:18:52.476Z,5.19
2023-04-15T13:21:22.992Z,5.11
2023-04-15T13:23:53.441Z,8.39
2023-04-15T13:26:28.374Z,8.28
2023-04-15T13:28:58.427Z,5.10
2023-04-15T13:31:28.458Z,4.79
2023-04-15T13:33:59.728Z,4.73
2023-04-15T13:36:30.206Z,4.72
2023-04-15T13:39:00.235Z,5.40
2023-04-15T13:41:32.712Z,5.39
2023-04-15T13:44:02.940Z,5.67
2023-04-15T13:46:33.074Z,5.64
2023-04-15T13:49:03.216Z,6.08
2023-04-15T13:51:33.191Z,5.41
2023-04-15T13:54:03.377Z,5.37
2023-04-15T13:56:36.272Z,5.22
2023-04-15T13:59:06.925Z,5.98
2023-04-15T14:01:37.653Z,5.70
2023-04-15T14:04:08.127Z,5.76
2023-04-15T14:06:38.348Z,5.59
2023-04-15T14:09:08.397Z,5.38
2023-04-15T14:11:41.302Z,5.60
2023-04-15T14:14:11.264Z,5.91
2023-04-15T14:16:42.383Z,6.21
2023-04-15T14:19:12.454Z,6.04
2023-04-15T14:21:42.465Z,5.61
2023-04-15T14:24:12.630Z,6.16
2023-04-15T14:26:46.727Z,5.46
2023-04-15T14:29:16.894Z,5.66
2023-04-15T14:32:04.504Z,5.12
2023-04-15T14:34:36.933Z,5.35
2023-04-15T14:37:07.117Z,4.56
2023-04-15T14:39:37.090Z,4.18
2023-04-15T14:42:09.604Z,4.10
2023-04-15T14:44:39.665Z,5.46
2023-04-15T14:47:09.722Z,7.39
2023-04-15T14:49:39.777Z,9.91
2023-04-15T14:52:09.764Z,6.47
2023-04-15T14:54:39.751Z,6.64
2023-04-15T14:57:12.397Z,5.51
2023-04-15T14:59:42.316Z,5.30
2023-04-15T15:02:14.687Z,5.83
2023-04-15T15:04:47.307Z,4.54
2023-04-15T15:07:17.352Z,4.13
2023-04-15T15:09:47.318Z,3.92
2023-04-15T15:12:19.889Z,3.56
2023-04-15T15:14:49.853Z,7.32
2023-04-15T15:17:19.939Z,5.09
2023-04-15T15:19:50.058Z,3.75
2023-04-15T15:22:21.475Z,3.48
2023-04-15T15:24:51.774Z,3.35
2023-04-15T15:27:24.365Z,2.04
2023-04-15T15:29:54.421Z,2.16
2023-04-15T15:32:24.564Z,2.77
2023-04-15T15:34:54.643Z,3.41
2023-04-15T15:37:24.846Z,3.22
2023-04-15T15:39:56.369Z,2.97
2023-04-15T15:42:29.036Z,3.05
2023-04-15T15:44:59.288Z,2.49
2023-04-15T15:47:29.538Z,2.11
2023-04-15T15:49:59.684Z,2.54
2023-04-15T15:52:29.621Z,2.18
2023-04-15T15:54:59.565Z,2.25
2023-04-15T15:57:32.110Z,2.05
2023-04-15T16:05:10.863Z,2.30
2023-04-15T16:07:40.815Z,2.73
2023-04-15T16:10:12.716Z,2.96
2023-04-15T16:12:45.379Z,4.08
2023-04-15T16:15:15.727Z,3.49
2023-04-15T16:17:46.079Z,3.28
2023-04-15T16:20:16.154Z,3.01
2023-04-15T16:22:46.596Z,3.32
2023-04-15T16:25:16.514Z,3.42
2023-04-15T16:28:00.830Z,3.73
2023-04-15T16:30:33.295Z,3.09
2023-04-15T16:33:03.387Z,3.10
2023-04-15T16:35:34.773Z,2.93
2023-04-15T16:38:05.010Z,2.78
2023-04-15T16:40:35.990Z,2.88
2023-04-15T16:43:11.371Z,3.08
2023-04-15T16:45:41.828Z,3.12
2023-04-15T16:48:11.820Z,2.66
2023-04-15T16:50:41.849Z,2.70
2023-04-15T16:53:11.894Z,3.61
2023-04-15T16:55:42.781Z,2.69
2023-04-15T16:58:15.338Z,2.32
2023-04-15T17:00:45.491Z,2.37
2023-04-15T17:03:15.732Z,2.42
2023-04-15T17:05:46.451Z,3.08
2023-04-15T17:08:16.423Z,3.17
2023-04-15T17:10:46.472Z,3.09
2023-04-15T17:13:19.013Z,8.64
2023-04-15T17:15:49.084Z,5.45
2023-04-15T17:18:29.877Z,7.25
2023-04-15T17:21:11.129Z,6.47
2023-04-15T17:23:43.883Z,5.80
2023-04-15T17:26:14.255Z,3.99
2023-04-15T17:28:46.939Z,3.63
2023-04-15T17:31:22.785Z,4.12
2023-04-15T17:34:15.305Z,4.17
2023-04-15T17:36:46.106Z,4.57
2023-04-15T17:39:36.265Z,7.79
2023-04-15T17:42:26.539Z,5.17
2023-04-15T17:45:19.246Z,3.90
2023-04-15T17:48:09.358Z,4.15
2023-04-15T17:50:59.371Z,4.86
2023-04-15T17:53:49.324Z,4.67
2023-04-15T17:56:39.315Z,3.67
2023-04-15T17:59:29.307Z,3.83
2023-04-15T18:02:22.056Z,3.72
2023-04-15T18:05:12.536Z,4.21
2023-04-15T18:08:02.684Z,4.26
2023-04-15T18:10:52.741Z,4.87
2023-04-15T18:13:43.770Z,4.54
2023-04-15T18:16:34.563Z,4.27
2023-04-15T18:19:27.104Z,4.73
2023-04-15T18:21:57.139Z,4.42
2023-04-15T18:24:27.145Z,4.80
2023-04-15T18:26:57.305Z,4.27
2023-04-15T18:29:27.352Z,4.32
2023-04-15T18:34:32.890Z,4.41
2023-04-15T18:37:03.654Z,4.13
2023-04-15T18:39:33.854Z,4.50
2023-04-15T18:42:03.997Z,4.20
2023-04-15T18:44:34.223Z,5.91
2023-04-15T18:47:04.381Z,5.56
2023-04-15T18:49:37.556Z,4.94
2023-04-15T18:52:07.627Z,4.32
2023-04-15T18:54:37.708Z,4.39
2023-04-15T18:57:08.880Z,4.61
2023-04-15T18:59:38.989Z,4.50
2023-04-15T19:02:09.421Z,4.80
2023-04-15T19:04:42.118Z,4.98
2023-04-15T19:07:12.557Z,5.25
2023-04-15T19:09:42.724Z,4.81
2023-04-15T19:12:12.776Z,5.13
2023-04-15T19:14:42.796Z,6.41
2023-04-15T19:17:12.728Z,9.79
2023-04-15T19:19:45.323Z,6.99
2023-04-15T19:22:15.399Z,5.62
2023-04-15T19:24:46.159Z,6.73
2023-04-15T19:27:16.270Z,5.89
2023-04-15T19:29:46.348Z,6.04
2023-04-15T19:32:16.423Z,6.75
2023-04-15T19:34:49.131Z,6.59
2023-04-15T19:37:19.190Z,6.97
2023-04-15T19:39:49.332Z,7.11
2023-04-15T19:42:19.271Z,7.32
2023-04-15T19:44:49.217Z,7.20
2023-04-15T19:47:21.387Z,6.76
2023-04-15T19:49:54.103Z,6.45
2023-04-15T19:52:24.818Z,5.84
2023-04-15T19:54:54.787Z,5.82
2023-04-15T19:57:24.836Z,6.33
2023-04-15T19:59:54.781Z,6.09
2023-04-15T20:02:25.012Z,5.50
2023-04-15T20:04:57.741Z,5.89
2023-04-15T20:07:27.809Z,5.97
2023-04-15T20:09:57.910Z,6.35
2023-04-15T20:12:50.838Z,6.31
2023-04-15T20:15:18.766Z,6.25
2023-04-15T20:17:48.758Z,5.96
2023-04-15T20:20:22.064Z,5.59
2023-04-15T20:22:55.575Z,7.07
2023-04-15T20:25:25.950Z,6.69
2023-04-15T20:27:58.131Z,6.66
2023-04-15T20:30:29.422Z,6.37
2023-04-15T20:32:59.812Z,6.50
2023-04-15T20:35:32.591Z,6.12
2023-04-15T20:38:02.859Z,6.08
2023-04-15T20:40:34.018Z,6.74
2023-04-15T20:43:04.277Z,6.48
2023-04-15T20:45:34.442Z,7.31
2023-04-15T20:48:04.533Z,7.34
2023-04-15T20:50:37.178Z,7.78
2023-04-15T20:53:07.650Z,7.78
2023-04-15T20:55:40.114Z,7.79
2023-04-15T20:58:10.131Z,8.01
2023-04-15T21:00:41.613Z,7.98
2023-04-15T21:03:12.113Z,8.44
2023-04-15T21:05:44.850Z,8.03
2023-04-15T21:08:14.875Z,8.27
2023-04-15T21:10:44.898Z,8.48
2023-04-15T21:13:17.812Z,8.45
2023-04-15T21:15:51.876Z,8.36
2023-04-15T21:18:21.966Z,8.32
2023-04-15T21:21:02.006Z,9.06
2023-04-15T21:23:36.103Z,8.61
2023-04-15T21:26:06.392Z,9.85
2023-04-15T21:28:37.282Z,9.70
2023-04-15T21:31:07.455Z,10.25
2023-04-15T21:33:37.422Z,10.15
2023-04-15T21:36:10.236Z,10.15
2023-04-15T21:38:40.270Z,10.58
2023-04-15T21:41:10.464Z,11.32
2023-04-15T21:43:40.650Z,10.71
2023-04-15T21:46:22.817Z,11.53
2023-04-15T21:48:55.955Z,11.50
2023-04-15T21:51:28.711Z,11.18
2023-04-15T21:53:58.792Z,11.59
2023-04-15T21:56:29.214Z,11.71
2023-04-15T21:59:00.442Z,11.90
2023-04-15T22:01:30.716Z,11.69
2023-04-15T22:04:00.846Z,11.93
2023-04-15T22:06:33.535Z,12.71
2023-04-15T22:09:03.878Z,12.65
2023-04-15T22:11:33.954Z,14.05
2023-04-15T22:14:05.462Z,13.86
2023-04-15T22:16:35.632Z,13.44
2023-04-15T22:19:05.847Z,14.38
2023-04-15T22:21:38.644Z,14.65
2023-04-15T22:24:37.954Z,13.98
2023-04-15T22:26:59.484Z,14.11
2023-04-15T22:29:29.464Z,14.00
2023-04-15T22:31:59.445Z,14.01
2023-04-15T22:34:29.583Z,14.89
2023-04-15T22:37:02.214Z,15.35
2023-04-15T22:39:32.181Z,18.97
2023-04-15T22:42:02.238Z,17.95
2023-04-15T22:44:32.262Z,17.27
2023-04-15T22:47:02.289Z,17.03
2023-04-15T22:49:32.309Z,15.74
2023-04-15T22:52:04.899Z,15.96
2023-04-15T22:54:34.961Z,16.69
2023-04-15T22:57:05.182Z,15.58
2023-04-15T22:59:35.099Z,16.62
2023-04-15T23:02:05.118Z,15.65
2023-04-15T23:04:35.368Z,16.41
2023-04-15T23:07:08.093Z,16.30
2023-04-15T23:09:38.069Z,16.34
2023-04-15T23:12:08.129Z,16.46
2023-04-15T23:14:38.188Z,16.52
2023-04-15T23:17:08.245Z,16.94
2023-04-15T23:19:38.340Z,16.62
2023-04-15T23:22:12.315Z,16.59
2023-04-15T23:24:42.239Z,17.49
2023-04-15T23:27:12.227Z,17.35
2023-04-15T23:29:42.227Z,16.55
2023-04-15T23:32:12.208Z,17.45
2023-04-15T23:34:42.291Z,17.99
2023-04-15T23:37:14.791Z,18.76
2023-04-15T23:39:44.751Z,16.84
2023-04-15T23:42:14.822Z,17.72
2023-04-15T23:44:45.115Z,18.66
2023-04-15T23:47:15.121Z,19.24
2023-04-15T23:49:45.220Z,18.77
2023-04-15T23:52:17.848Z,19.36
2023-04-15T23:54:47.909Z,17.89
2023-04-15T23:57:18.901Z,18.45
2023-04-15T23:59:49.068Z,19.50
